Latest Weather Observations for Daly Waters

IDD60801

Issued at 2:31 pm CST Saturday 4 July 2015 (issued every 30 minutes, with the page automatically refreshed every 10 minutes)

About weather observations | Map of weather stations | Latest weather observations for NT | Other Formats
Station Details ID: 014626 Name: DALY WATERS AIRSTRIP Lat: -16.26 Lon: 133.38 Height: 209.84 m
Data from the previous 72 hours. | See also: Recent months at Daly Waters
Date/Time
CST
Temp
°C
App
Temp
°C
Dew
Point
Rel
Hum
%
Delta-T
°C
Wind Press
QNH
hPa
Press
MSL
hPa
Rain
since 9 am
mm
Dir
 
Spd
km/h
Gust
km/h
Spd
kts
Gust
kts
04/02:30pm 28.3 25.3 0.9 17 13.3 SE 6 11 3 6 1013.9 1013.2 0.0
04/02:00pm 28.0 24.5 1.5 18 12.9 E 9 13 5 7 1014.4 1013.7 0.0
04/01:30pm 27.7 24.9 2.0 19 12.6 NE 6 11 3 6 1015.1 1014.4 0.0
04/01:00pm 28.3 25.6 2.5 19 12.8 ENE 6 9 3 5 1015.5 1014.8 0.0
04/12:30pm 26.8 23.2 2.7 21 11.9 NE 11 19 6 10 1016.1 1015.4 0.0
04/12:00pm 26.6 23.3 2.5 21 11.8 NE 9 17 5 9 1016.8 1016.1 0.0
04/11:30am 25.8 22.2 3.1 23 11.2 E 11 19 6 10 1017.4 1016.7 0.0
04/11:00am 24.4 20.7 2.5 24 10.6 ENE 11 17 6 9 1017.9 1017.3 0.0
04/10:30am 23.5 20.7 2.9 26 10.0 E 7 13 4 7 1018.3 1017.7 0.0
04/10:00am 21.8 19.2 3.0 29 9.0 ESE 6 13 3 7 1018.6 1017.9 0.0
04/09:30am 20.1 16.4 2.5 31 8.2 ESE 11 19 6 10 1018.8 1018.1 0.0
04/09:00am 18.7 15.5 2.9 35 7.4 ESE 9 17 5 9 1018.7 1018.0 0.0
04/08:30am 16.1 13.4 3.5 43 5.8 SE 7 13 4 7 1018.6 1017.9 0.0
04/08:00am 12.5 11.3 4.5 58 3.7 CALM 0 2 0 1 1018.3 1017.7 0.0
04/07:30am 7.6 5.1 3.6 76 1.7 S 6 6 3 3 1017.9 1017.3 0.0
04/07:00am 7.3 5.0 3.0 74 1.8 SSE 4 4 2 2 1017.8 1017.2 0.0
04/06:30am 8.7 6.8 2.9 67 2.5 E 2 4 1 2 1017.6 1016.9 0.0
04/06:00am 10.5 8.4 3.8 63 3.0 SSE 4 6 2 3 1017.6 1016.9 0.0
04/05:30am 11.2 8.7 3.5 59 3.4 SSE 6 7 3 4 1017.4 1016.7 0.0
04/05:00am 10.8 8.4 4.3 64 2.9 SE 6 7 3 4 1017.1 1016.4 0.0
04/04:30am 9.0 6.8 3.4 68 2.4 SE 4 6 2 3 1017.0 1016.3 0.0
04/04:00am 9.7 7.5 3.4 65 2.8 SE 4 6 2 3 1017.0 1016.3 0.0
04/03:30am 10.4 8.2 3.4 62 3.1 SE 4 6 2 3 1017.0 1016.3 0.0
04/03:00am 12.1 9.9 3.3 55 3.9 ESE 4 6 2 3 1017.2 1016.5 0.0
04/02:30am 13.8 11.7 3.9 51 4.5 SE 4 6 2 3 1017.2 1016.5 0.0
04/02:00am 14.8 12.3 3.9 48 5.1 SE 6 9 3 5 1017.4 1016.7 0.0
04/01:30am 15.4 12.8 4.2 47 5.2 SSE 7 9 4 5 1017.6 1016.9 0.0
04/01:00am 15.7 13.1 4.4 47 5.3 SSE 7 9 4 5 1017.7 1017.1 0.0
04/12:30am 15.9 13.3 4.3 46 5.5 SSE 7 9 4 5 1017.7 1017.1 0.0
04/12:00am 16.4 14.0 5.1 47 5.4 SSE 7 11 4 6 1017.6 1016.9 0.0
 
Date/Time
CST
Temp
°C
App
Temp
°C
Dew
Point
Rel
Hum
%
Delta-T
°C
Wind Press
QNH
hPa
Press
MSL
hPa
Rain
since 9 am
mm
Dir
 
Spd
km/h
Gust
km/h
Spd
kts
Gust
kts
03/11:30pm 16.0 13.7 5.0 48 5.3 SSE 6 9 3 5 1017.8 1017.2 0.0
03/11:00pm 17.1 14.8 4.8 44 5.9 SSE 6 9 3 5 1017.9 1017.3 0.0
03/10:30pm 17.9 15.5 5.2 43 6.2 SSE 7 9 4 5 1018.0 1017.4 0.0
03/10:00pm 18.3 16.0 4.8 41 6.5 SSE 6 9 3 5 1017.9 1017.3 0.0
03/09:30pm 19.3 16.9 5.4 40 6.9 S 7 11 4 6 1017.9 1017.3 0.0
03/09:00pm 18.1 15.9 6.0 45 6.0 S 7 9 4 5 1017.6 1016.9 0.0
03/08:30pm 15.6 13.3 5.8 52 4.7 S 7 9 4 5 1017.4 1016.7 0.0
03/08:00pm 15.6 13.6 4.6 48 5.2 SSE 4 6 2 3 1017.0 1016.3 0.0
03/07:30pm 17.1 15.1 4.4 43 6.0 SSE 4 6 2 3 1016.6 1015.9 0.0
03/07:00pm 19.4 16.9 3.6 35 7.5 SSE 6 6 3 3 1016.5 1015.8 0.0
03/06:30pm 23.2 20.9 4.7 30 9.3 SSE 6 9 3 5 1016.2 1015.5 0.0
03/06:00pm 25.2 22.7 4.9 27 10.3 SE 7 11 4 6 1015.9 1015.2 0.0
03/05:30pm 26.7 23.9 5.1 25 11.1 SSE 9 20 5 11 1015.6 1014.9 0.0
03/05:00pm 27.4 24.6 5.1 24 11.6 SSE 9 17 5 9 1015.5 1014.8 0.0
03/04:30pm 27.6 24.7 4.6 23 11.8 S 9 17 5 9 1015.4 1014.7 0.0
03/04:00pm 28.2 25.8 5.1 23 12.0 SE 7 17 4 9 1015.4 1014.7 0.0
03/03:30pm 28.3 25.5 5.2 23 12.0 SSW 9 17 5 9 1015.4 1014.7 0.0
03/03:00pm 28.1 25.2 4.4 22 12.2 SE 9 19 5 10 1015.6 1014.9 0.0
03/02:30pm 27.6 24.7 4.6 23 11.8 SE 9 17 5 9 1016.1 1015.4 0.0
03/02:00pm 28.1 25.2 4.4 22 12.2 E 9 26 5 14 1016.4 1015.7 0.0
03/01:30pm 27.6 25.1 4.6 23 11.8 SSE 7 19 4 10 1017.1 1016.4 0.0
03/01:00pm 26.7 23.0 4.5 24 11.3 SSE 13 20 7 11 1017.8 1017.2 0.0
03/12:30pm 26.5 22.9 4.9 25 11.1 E 13 22 7 12 1018.6 1017.9 0.0
03/12:00pm 26.6 23.8 5.0 25 11.1 ESE 9 17 5 9 1019.2 1018.5 0.0
03/11:30am 25.1 21.4 4.3 26 10.4 ESE 13 22 7 12 1019.8 1019.1 0.0
03/11:00am 24.0 20.2 3.9 27 10.0 SE 13 22 7 12 1020.2 1019.5 0.0
03/10:30am 23.0 18.7 3.5 28 9.5 ESE 15 22 8 12 1020.5 1019.8 0.0
03/10:00am 21.9 17.4 4.0 31 8.8 ESE 17 30 9 16 1020.7 1020.0 0.0
03/09:30am 20.1 15.0 3.3 33 8.0 SE 19 28 10 15 1020.8 1020.1 0.0
03/09:00am 19.1 14.4 3.3 35 7.5 SE 17 28 9 15 1020.9 1020.2 0.0
03/08:30am 18.3 14.2 4.1 39 6.8 SE 15 24 8 13 1020.8 1020.1 0.0
03/08:00am 17.1 13.8 4.8 44 5.9 SE 11 19 6 10 1020.6 1019.9 0.0
03/07:30am 15.8 13.4 5.1 49 5.1 SE 7 13 4 7 1020.3 1019.6 0.0
03/07:00am 15.5 13.1 5.1 50 5.0 SE 7 13 4 7 1020.0 1019.3 0.0
03/06:30am 15.8 13.1 5.7 51 4.9 SE 9 11 5 6 1019.7 1019.0 0.0
03/06:00am 16.0 13.9 5.9 51 4.9 SE 6 11 3 6 1019.5 1018.8 0.0
03/05:30am 16.2 14.0 6.1 51 4.9 SSE 7 11 4 6 1019.3 1018.6 0.0
03/05:00am 16.3 14.3 6.2 51 5.0 SE 6 9 3 5 1019.1 1018.4 0.0
03/04:30am 16.8 14.8 6.3 50 5.2 SE 6 9 3 5 1019.0 1018.3 0.0
03/04:00am 17.6 15.7 6.8 49 5.4 SE 6 13 3 7 1018.9 1018.2 0.0
03/03:30am 18.6 16.6 6.4 45 6.1 SE 6 11 3 6 1018.8 1018.1 0.0
03/03:00am 19.4 16.9 6.5 43 6.5 ESE 9 15 5 8 1018.7 1018.0 0.0
03/02:30am 20.1 17.3 6.8 42 6.8 SE 11 19 6 10 1018.6 1017.9 0.0
03/02:00am 20.3 17.5 7.0 42 6.8 SE 11 19 6 10 1018.8 1018.1 0.0
03/01:30am 20.4 18.0 7.1 42 6.8 SE 9 19 5 10 1019.1 1018.4 0.0
03/01:00am 20.8 18.1 7.4 42 7.0 SE 11 20 6 11 1019.2 1018.5 0.0
03/12:30am 21.1 18.5 7.7 42 7.0 SE 11 19 6 10 1019.2 1018.5 0.0
03/12:00am 21.3 18.7 7.9 42 7.0 SE 11 19 6 10 1019.3 1018.6 0.0
 
Date/Time
CST
Temp
°C
App
Temp
°C
Dew
Point
Rel
Hum
%
Delta-T
°C
Wind Press
QNH
hPa
Press
MSL
hPa
Rain
since 9 am
mm
Dir
 
Spd
km/h
Gust
km/h
Spd
kts
Gust
kts
02/11:30pm 21.7 19.1 7.9 41 7.2 SE 11 19 6 10 1019.3 1018.6 0.0
02/11:00pm 22.3 19.3 7.7 39 7.7 SSE 13 22 7 12 1019.3 1018.6 0.0
02/10:30pm 22.8 19.1 7.8 38 7.9 SSE 17 26 9 14 1019.3 1018.6 0.0
02/10:00pm 22.6 19.7 8.3 40 7.6 SSE 13 19 7 10 1019.3 1018.6 0.0
02/09:30pm 21.5 19.8 8.4 43 6.9 SSE 7 9 4 5 1019.1 1018.4 0.0
02/09:00pm 22.2 20.6 8.7 42 7.2 SSE 7 9 4 5 1018.8 1018.1 0.0
02/08:30pm 22.2 20.8 8.7 42 7.2 SSE 6 9 3 5 1018.4 1017.8 0.0
02/08:00pm 22.6 21.2 8.7 41 7.5 SSE 6 7 3 4 1018.1 1017.5 0.0
02/07:30pm 23.6 21.9 8.5 38 8.1 SSE 7 9 4 5 1017.8 1017.2 0.0
02/07:00pm 24.7 23.1 7.8 34 9.0 SSE 6 7 3 4 1017.4 1016.7 0.0
02/06:30pm 26.1 24.2 7.7 31 9.9 SSE 7 13 4 7 1017.0 1016.3 0.0
02/06:00pm 27.5 24.9 7.9 29 10.6 SSE 11 19 6 10 1016.7 1016.0 0.0
02/05:30pm 28.7 25.7 7.9 27 11.4 SE 13 20 7 11 1016.5 1015.8 0.0
02/05:00pm 29.4 26.1 7.9 26 11.8 SSE 15 22 8 12 1016.3 1015.6 0.0
02/04:30pm 30.1 27.1 7.9 25 12.2 SE 13 22 7 12 1016.2 1015.5 0.0
02/04:00pm 30.3 27.8 8.1 25 12.3 ESE 11 20 6 11 1016.2 1015.5 0.0
02/03:30pm 30.3 27.4 8.1 25 12.3 ESE 13 26 7 14 1016.4 1015.7 0.0
02/03:00pm 30.2 27.3 8.0 25 12.3 ESE 13 24 7 13 1016.8 1016.1 0.0
02/02:30pm 30.3 27.9 8.7 26 12.1 ESE 11 20 6 11 1017.3 1016.6 0.0
02/02:00pm 29.6 26.7 8.1 26 11.9 SE 13 26 7 14 1017.7 1017.1 0.0
02/01:30pm 30.0 27.7 9.0 27 11.8 ESE 11 28 6 15 1018.4 1017.8 0.0
02/01:00pm 29.1 26.3 8.7 28 11.3 ESE 13 26 7 14 1019.1 1018.4 0.0
02/12:30pm 29.0 26.2 8.7 28 11.3 E 13 24 7 13 1019.8 1019.1 0.0
02/12:00pm 27.7 23.8 8.6 30 10.5 ESE 19 30 10 16 1020.5 1019.8 0.0
02/11:30am 27.0 24.1 8.0 30 10.3 ESE 13 22 7 12 1020.9 1020.2 0.0
02/11:00am 26.4 23.2 8.4 32 9.8 ESE 15 28 8 15 1021.4 1020.7 0.0
02/10:30am 25.5 23.0 8.1 33 9.4 SE 11 20 6 11 1021.6 1020.9 0.0
02/10:00am 24.6 20.9 8.1 35 8.9 ESE 17 30 9 16 1021.9 1021.3 0.0
02/09:30am 22.9 18.8 7.8 38 8.0 SE 19 28 10 15 1021.9 1021.3 0.0
02/09:00am 22.2 18.9 8.0 40 7.5 ESE 15 28 8 15 1021.8 1021.1 0.0
02/08:30am 21.0 17.8 8.3 44 6.7 SE 15 22 8 12 1021.6 1020.9 0.0
02/08:00am 19.1 17.6 9.0 52 5.3 SSE 7 9 4 5 1021.3 1020.6 0.0
02/07:30am 15.6 14.4 8.1 61 3.8 SSE 4 6 2 3 1021.1 1020.4 0.0
02/07:00am 16.8 15.2 8.0 56 4.5 SE 6 6 3 3 1020.8 1020.1 0.0
02/06:30am 18.6 17.1 8.3 51 5.3 SE 6 7 3 4 1020.5 1019.8 0.0
02/06:00am 19.6 17.9 8.3 48 5.9 SE 7 9 4 5 1020.2 1019.5 0.0
02/05:30am 20.6 18.5 8.3 45 6.5 ESE 9 17 5 9 1020.0 1019.3 0.0
02/05:00am 21.3 18.8 8.2 43 6.9 ESE 11 19 6 10 1019.8 1019.1 0.0
02/04:30am 21.8 19.8 8.7 43 7.0 ESE 9 24 5 13 1019.6 1018.9 0.0
02/04:00am 22.2 19.8 8.7 42 7.2 ESE 11 20 6 11 1019.5 1018.8 0.0
02/03:30am 22.5 20.2 9.0 42 7.3 SE 11 17 6 9 1019.4 1018.7 0.0
02/03:00am 22.8 20.6 9.2 42 7.4 SE 11 19 6 10 1019.3 1018.6 0.0
02/02:30am 22.9 20.3 9.3 42 7.4 SE 13 24 7 13 1019.3 1018.6 0.0
02/02:00am 23.3 20.8 9.7 42 7.5 SE 13 24 7 13 1019.4 1018.7 0.0
02/01:30am 23.1 20.9 9.5 42 7.4 SE 11 19 6 10 1019.6 1018.9 0.0
02/01:00am 23.4 21.7 9.8 42 7.5 SE 9 17 5 9 1019.6 1018.9 0.0
02/12:30am 24.0 21.6 9.9 41 7.8 SE 13 20 7 11 1019.5 1018.8 0.0
02/12:00am 24.4 22.3 9.9 40 8.0 SE 11 19 6 10 1019.6 1018.9 0.0
 
Date/Time
CST
Temp
°C
App
Temp
°C
Dew
Point
Rel
Hum
%
Delta-T
°C
Wind Press
QNH
hPa
Press
MSL
hPa
Rain
since 9 am
mm
Dir
 
Spd
km/h
Gust
km/h
Spd
kts
Gust
kts
01/11:30pm 24.6 22.5 9.7 39 8.2 SE 11 19 6 10 1019.7 1019.0 0.0
01/11:00pm 24.5 23.0 10.4 41 7.9 SSE 9 20 5 11 1019.8 1019.1 0.0
01/10:30pm 23.3 22.4 10.7 45 7.0 SSE 6 11 3 6 1019.8 1019.1 0.0
01/10:00pm 22.5 22.2 11.3 49 6.3 SSE 4 6 2 3 1019.8 1019.1 0.0
01/09:30pm 21.2 20.2 10.4 50 5.9 SSE 6 6 3 3 1019.6 1018.9 0.0
01/09:00pm 21.8 20.7 10.0 47 6.4 SSE 6 6 3 3 1019.3 1018.6 0.0
01/08:30pm 23.3 22.6 10.0 43 7.3 SSE 4 6 2 3 1019.1 1018.4 0.0
01/08:00pm 24.8 23.7 9.9 39 8.3 SSE 6 7 3 4 1018.7 1018.0 0.0
01/07:30pm 25.8 24.7 10.0 37 8.8 SSE 6 7 3 4 1018.3 1017.7 0.0
01/07:00pm 26.1 25.3 9.5 35 9.2 SSE 4 6 2 3 1018.1 1017.5 0.0
01/06:30pm 26.9 25.5 9.7 34 9.6 SSE 7 11 4 6 1017.9 1017.3 0.0
01/06:00pm 27.8 26.5 10.1 33 10.0 SE 7 15 4 8 1017.7 1017.1 0.0
01/05:30pm 28.6 26.1 9.8 31 10.6 SE 13 22 7 12 1017.5 1016.8 0.0
01/05:00pm 30.3 28.9 10.8 30 11.3 ESE 9 19 5 10 1017.2 1016.5 0.0
01/04:30pm 29.6 27.2 10.2 30 11.1 SE 13 22 7 12 1017.0 1016.3 0.0
01/04:00pm 30.3 27.7 10.8 30 11.3 SE 15 24 8 13 1017.0 1016.3 0.0
01/03:30pm 30.2 28.1 11.2 31 11.0 E 13 22 7 12 1017.1 1016.4 0.0
01/03:00pm 30.5 28.4 11.0 30 11.3 ESE 13 22 7 12 1017.4 1016.7 0.0

Other Formats:

Comma delimited format used in spreadsheet applications
http://www.bom.gov.au/fwo/IDD60801/IDD60801.94234.axf

JavaScript Object Notation format (JSON) in row-major order
http://www.bom.gov.au/fwo/IDD60801/IDD60801.94234.json